Catàleg de serveis del Meteocat

Dades de l'estació automàtica Sant Cugat del Vallès - CAR

?
?
Resum diari 21:00 TU
Dades diàries de l'estació meteorològica
Temperatura mitjana 8.0 °C
Temperatura màxima 13.1 °C 15:20 TU
Temperatura mínima 4.9 °C 6:36 TU
Humitat relativa mitjana 79%
Precipitació acumulada 0.0 mm
Ratxa màxima del vent (10 m) 20.2 km/h - 273º 19:57 TU
Irradiació solar global 6.8 MJ/m2

El tram horari està expressat en Temps Universal (TU). Cal sumar una hora en horari d'hivern i dues en horari d'estiu per passar a l'hora oficial.

Sant Cugat del Vallès - CAR

Metadades estació meteorol´gica
Municipi Sant Cugat del Vallès
Comarca Vallès Occidental
Altitud 158 m
Data alta 08.08.2013
Estat actual Operativa
Dades de període
Període
TU
TM
°C
TX
°C
TN
°C
HRM
%
PPT
mm
VVM (10 m)
km/h
DVM (10 m)
graus
VVX (10 m)
km/h
RS
W/m2
00:00 - 00:30 6.5 6.5 6.4 94 0.0 2.5 271 6.8 0
00:30 - 01:00 6.4 6.5 6.2 93 0.0 3.2 276 8.3 0
01:00 - 01:30 6.1 6.2 6.0 92 0.0 5.0 276 7.9 0
01:30 - 02:00 5.8 6.0 5.7 92 0.0 5.8 266 9.0 0
02:00 - 02:30 5.4 5.6 5.3 92 0.0 6.8 260 11.9 0
02:30 - 03:00 5.4 5.4 5.3 92 0.0 5.4 266 10.8 0
03:00 - 03:30 5.3 5.4 5.3 92 0.0 6.5 271 11.9 0
03:30 - 04:00 5.2 5.3 5.2 91 0.0 6.1 265 10.1 0
04:00 - 04:30 5.4 5.5 5.2 91 0.0 7.2 282 13.3 0
04:30 - 05:00 5.5 5.6 5.4 90 0.0 6.1 279 12.6 0
05:00 - 05:30 5.4 5.5 5.2 90 0.0 6.1 278 12.2 0
05:30 - 06:00 5.1 5.2 4.9 90 0.0 7.6 279 14.8 0
06:00 - 06:30 5.1 5.2 4.9 91 0.0 5.0 284 9.7 0
06:30 - 07:00 5.0 5.2 4.9 91 0.0 5.8 262 10.4 0
07:00 - 07:30 5.2 5.3 5.1 90 0.0 6.1 264 10.8 5
07:30 - 08:00 5.3 5.5 5.2 90 0.0 6.1 269 10.1 19
08:00 - 08:30 5.5 5.6 5.4 88 0.0 5.8 270 10.4 43
08:30 - 09:00 5.7 5.8 5.6 88 0.0 5.4 274 8.3 60
09:00 - 09:30 6.3 6.7 5.8 85 0.0 6.1 258 10.4 180
09:30 - 10:00 7.3 7.6 6.7 80 0.0 5.0 262 10.1 271
10:00 - 10:30 8.5 9.4 7.6 76 0.0 4.0 241 6.5 365
10:30 - 11:00 9.7 10.2 9.4 70 0.0 4.3 251 8.6 380
11:00 - 11:30 10.7 11.3 10.0 67 0.0 6.1 268 12.2 436
11:30 - 12:00 11.3 12.0 10.9 65 0.0 8.3 275 13.7 457
12:00 - 12:30 11.9 12.3 11.7 63 0.0 7.6 280 14.0 422
12:30 - 13:00 11.7 12.0 11.5 63 0.0 6.8 280 12.2 237
13:00 - 13:30 11.5 11.7 11.4 65 0.0 5.0 294 9.4 137
13:30 - 14:00 11.7 12.0 11.4 64 0.0 5.4 274 9.4 210
14:00 - 14:30 11.7 11.9 11.6 64 0.0 4.7 286 9.0 128
14:30 - 15:00 12.2 12.6 11.9 62 0.0 3.2 199 8.3 193
15:00 - 15:30 12.8 13.1 12.4 59 0.0 4.7 131 10.8 182
15:30 - 16:00 11.9 12.3 11.4 63 0.0 4.7 116 13.3 62
16:00 - 16:30 11.2 11.4 10.7 71 0.0 2.2 96 7.9 26
16:30 - 17:00 10.5 10.7 10.2 76 0.0 1.1 98 5.8 4
17:00 - 17:30 9.9 10.1 9.5 74 0.0 5.0 288 12.2 0
17:30 - 18:00 9.0 9.4 8.7 72 0.0 7.9 297 18.0 0
18:00 - 18:30 8.5 8.7 8.4 74 0.0 6.5 285 14.0 0
18:30 - 19:00 8.2 8.4 7.9 75 0.0 7.2 283 15.8 0
19:00 - 19:30 7.7 7.9 7.6 76 0.0 6.5 274 12.6 0
19:30 - 20:00 7.5 7.6 7.4 76 0.0 9.4 287 20.2 0
20:00 - 20:30 7.4 7.5 7.4 76 0.0 7.2 284 14.8 0
20:30 - 21:00 7.3 7.4 7.2 77 0.0 5.0 253 12.6 0
21:00 - 21:30 7.2 7.3 7.1 77 0.0 7.6 274 16.9 0

Les dades en taronja només han passat un control de qualitat automàtic. Resta pendent la seva validació definitiva.